sensor_id;sensor_type;location;lat;lon;timestamp;P1;durP1;ratioP1;P2;durP2;ratioP2
16177;SDS011;8195;51.220;9.746;2023-12-28T00:00:40;3.37;;;2.60;;
16177;SDS011;8195;51.220;9.746;2023-12-28T00:05:00;4.10;;;2.30;;
16177;SDS011;8195;51.220;9.746;2023-12-28T00:09:21;2.30;;;2.10;;
16177;SDS011;8195;51.220;9.746;2023-12-28T00:13:41;2.57;;;2.37;;
16177;SDS011;8195;51.220;9.746;2023-12-28T00:18:02;2.10;;;2.00;;
16177;SDS011;8195;51.220;9.746;2023-12-28T00:22:23;2.33;;;2.10;;
16177;SDS011;8195;51.220;9.746;2023-12-28T00:26:43;2.63;;;2.43;;
16177;SDS011;8195;51.220;9.746;2023-12-28T00:31:04;2.60;;;2.40;;
16177;SDS011;8195;51.220;9.746;2023-12-28T00:35:24;2.57;;;2.37;;
16177;SDS011;8195;51.220;9.746;2023-12-28T00:39:45;2.80;;;2.17;;
16177;SDS011;8195;51.220;9.746;2023-12-28T00:44:08;3.87;;;2.47;;
16177;SDS011;8195;51.220;9.746;2023-12-28T00:48:29;2.30;;;2.10;;
16177;SDS011;8195;51.220;9.746;2023-12-28T00:52:49;3.07;;;2.50;;
16177;SDS011;8195;51.220;9.746;2023-12-28T00:57:12;2.97;;;2.30;;
16177;SDS011;8195;51.220;9.746;2023-12-28T01:01:33;3.47;;;2.70;;
16177;SDS011;8195;51.220;9.746;2023-12-28T01:05:53;2.77;;;2.50;;
16177;SDS011;8195;51.220;9.746;2023-12-28T01:10:14;2.80;;;2.60;;
16177;SDS011;8195;51.220;9.746;2023-12-28T01:14:34;2.67;;;2.47;;
16177;SDS011;8195;51.220;9.746;2023-12-28T01:18:55;3.13;;;2.60;;
16177;SDS011;8195;51.220;9.746;2023-12-28T01:23:15;2.47;;;2.27;;
16177;SDS011;8195;51.220;9.746;2023-12-28T01:27:36;2.70;;;2.50;;
16177;SDS011;8195;51.220;9.746;2023-12-28T01:31:56;2.63;;;2.43;;
16177;SDS011;8195;51.220;9.746;2023-12-28T01:36:17;2.50;;;2.30;;
16177;SDS011;8195;51.220;9.746;2023-12-28T01:40:38;3.50;;;3.00;;
16177;SDS011;8195;51.220;9.746;2023-12-28T01:45:04;2.87;;;2.60;;
16177;SDS011;8195;51.220;9.746;2023-12-28T01:49:25;2.83;;;2.53;;
16177;SDS011;8195;51.220;9.746;2023-12-28T01:53:46;3.27;;;2.97;;
16177;SDS011;8195;51.220;9.746;2023-12-28T01:58:09;3.07;;;2.87;;
16177;SDS011;8195;51.220;9.746;2023-12-28T02:02:30;3.17;;;2.97;;
16177;SDS011;8195;51.220;9.746;2023-12-28T02:06:53;4.13;;;2.93;;
16177;SDS011;8195;51.220;9.746;2023-12-28T02:11:17;3.30;;;3.00;;
16177;SDS011;8195;51.220;9.746;2023-12-28T02:15:38;3.33;;;3.10;;
16177;SDS011;8195;51.220;9.746;2023-12-28T02:19:59;3.57;;;3.27;;
16177;SDS011;8195;51.220;9.746;2023-12-28T02:24:20;3.77;;;3.47;;
16177;SDS011;8195;51.220;9.746;2023-12-28T02:28:40;3.90;;;3.50;;
16177;SDS011;8195;51.220;9.746;2023-12-28T02:33:24;3.90;;;3.53;;
16177;SDS011;8195;51.220;9.746;2023-12-28T02:37:55;4.03;;;3.63;;
16177;SDS011;8195;51.220;9.746;2023-12-28T02:42:16;4.67;;;3.80;;
16177;SDS011;8195;51.220;9.746;2023-12-28T02:46:37;4.13;;;3.40;;
16177;SDS011;8195;51.220;9.746;2023-12-28T02:50:57;3.30;;;3.00;;
16177;SDS011;8195;51.220;9.746;2023-12-28T02:55:17;4.27;;;3.50;;
16177;SDS011;8195;51.220;9.746;2023-12-28T02:59:38;3.93;;;3.53;;
16177;SDS011;8195;51.220;9.746;2023-12-28T03:03:59;3.83;;;3.50;;
16177;SDS011;8195;51.220;9.746;2023-12-28T03:08:19;3.57;;;3.27;;
16177;SDS011;8195;51.220;9.746;2023-12-28T03:12:40;3.80;;;3.50;;
16177;SDS011;8195;51.220;9.746;2023-12-28T03:17:00;4.00;;;3.60;;
16177;SDS011;8195;51.220;9.746;2023-12-28T03:21:20;4.10;;;3.20;;
16177;SDS011;8195;51.220;9.746;2023-12-28T03:25:41;4.03;;;3.47;;
16177;SDS011;8195;51.220;9.746;2023-12-28T03:30:01;4.40;;;4.00;;
16177;SDS011;8195;51.220;9.746;2023-12-28T03:34:22;3.80;;;3.43;;
16177;SDS011;8195;51.220;9.746;2023-12-28T03:38:42;3.90;;;3.50;;
16177;SDS011;8195;51.220;9.746;2023-12-28T03:43:03;3.67;;;3.37;;
16177;SDS011;8195;51.220;9.746;2023-12-28T03:47:23;4.87;;;3.73;;
16177;SDS011;8195;51.220;9.746;2023-12-28T03:51:46;3.80;;;3.50;;
16177;SDS011;8195;51.220;9.746;2023-12-28T03:56:07;4.07;;;3.70;;
16177;SDS011;8195;51.220;9.746;2023-12-28T04:00:30;3.70;;;3.40;;
16177;SDS011;8195;51.220;9.746;2023-12-28T04:04:51;4.00;;;3.67;;
16177;SDS011;8195;51.220;9.746;2023-12-28T04:09:12;4.83;;;4.33;;
16177;SDS011;8195;51.220;9.746;2023-12-28T04:13:33;4.70;;;3.80;;
16177;SDS011;8195;51.220;9.746;2023-12-28T04:17:53;4.63;;;3.97;;
16177;SDS011;8195;51.220;9.746;2023-12-28T04:22:13;5.20;;;4.47;;
16177;SDS011;8195;51.220;9.746;2023-12-28T04:26:34;4.90;;;4.50;;
16177;SDS011;8195;51.220;9.746;2023-12-28T04:30:54;4.27;;;3.87;;
16177;SDS011;8195;51.220;9.746;2023-12-28T04:35:15;4.27;;;3.97;;
16177;SDS011;8195;51.220;9.746;2023-12-28T04:39:35;6.13;;;5.60;;
16177;SDS011;8195;51.220;9.746;2023-12-28T04:43:55;5.27;;;4.50;;
16177;SDS011;8195;51.220;9.746;2023-12-28T04:48:16;5.43;;;4.57;;
16177;SDS011;8195;51.220;9.746;2023-12-28T04:52:37;6.43;;;5.90;;
16177;SDS011;8195;51.220;9.746;2023-12-28T04:56:57;5.63;;;5.00;;
16177;SDS011;8195;51.220;9.746;2023-12-28T05:01:17;5.43;;;4.93;;
16177;SDS011;8195;51.220;9.746;2023-12-28T05:05:38;5.50;;;4.97;;
16177;SDS011;8195;51.220;9.746;2023-12-28T05:09:58;5.23;;;4.73;;
16177;SDS011;8195;51.220;9.746;2023-12-28T05:14:19;5.20;;;4.70;;
16177;SDS011;8195;51.220;9.746;2023-12-28T05:18:39;4.70;;;4.30;;
16177;SDS011;8195;51.220;9.746;2023-12-28T05:23:00;5.20;;;4.20;;
16177;SDS011;8195;51.220;9.746;2023-12-28T05:27:20;4.70;;;4.30;;
16177;SDS011;8195;51.220;9.746;2023-12-28T05:31:40;4.97;;;4.57;;
16177;SDS011;8195;51.220;9.746;2023-12-28T05:36:01;5.50;;;5.00;;
16177;SDS011;8195;51.220;9.746;2023-12-28T05:40:21;5.17;;;4.67;;
16177;SDS011;8195;51.220;9.746;2023-12-28T05:44:42;9.40;;;4.80;;
16177;SDS011;8195;51.220;9.746;2023-12-28T05:49:02;4.20;;;3.80;;
16177;SDS011;8195;51.220;9.746;2023-12-28T05:53:23;4.23;;;3.83;;
16177;SDS011;8195;51.220;9.746;2023-12-28T05:57:44;4.43;;;4.03;;
16177;SDS011;8195;51.220;9.746;2023-12-28T06:02:04;4.77;;;4.10;;
16177;SDS011;8195;51.220;9.746;2023-12-28T06:06:25;4.60;;;4.20;;
16177;SDS011;8195;51.220;9.746;2023-12-28T06:10:45;4.23;;;3.93;;
16177;SDS011;8195;51.220;9.746;2023-12-28T06:15:06;4.57;;;4.17;;
16177;SDS011;8195;51.220;9.746;2023-12-28T06:19:26;4.50;;;4.10;;
16177;SDS011;8195;51.220;9.746;2023-12-28T06:23:47;4.30;;;3.90;;
16177;SDS011;8195;51.220;9.746;2023-12-28T06:28:07;5.03;;;3.80;;
16177;SDS011;8195;51.220;9.746;2023-12-28T06:32:28;3.97;;;3.67;;
16177;SDS011;8195;51.220;9.746;2023-12-28T06:36:48;4.40;;;3.87;;
16177;SDS011;8195;51.220;9.746;2023-12-28T06:41:12;4.63;;;4.17;;
16177;SDS011;8195;51.220;9.746;2023-12-28T06:45:32;4.03;;;3.73;;
16177;SDS011;8195;51.220;9.746;2023-12-28T06:49:53;4.80;;;4.20;;
16177;SDS011;8195;51.220;9.746;2023-12-28T06:54:13;4.33;;;3.93;;
16177;SDS011;8195;51.220;9.746;2023-12-28T06:58:34;4.37;;;3.97;;
16177;SDS011;8195;51.220;9.746;2023-12-28T07:02:54;4.63;;;4.23;;
16177;SDS011;8195;51.220;9.746;2023-12-28T07:07:14;4.70;;;4.40;;
16177;SDS011;8195;51.220;9.746;2023-12-28T07:11:35;4.77;;;4.40;;
16177;SDS011;8195;51.220;9.746;2023-12-28T07:15:55;4.40;;;4.00;;
16177;SDS011;8195;51.220;9.746;2023-12-28T07:20:16;4.43;;;4.13;;
16177;SDS011;8195;51.220;9.746;2023-12-28T07:24:36;3.87;;;3.57;;
16177;SDS011;8195;51.220;9.746;2023-12-28T07:28:57;4.77;;;4.17;;
16177;SDS011;8195;51.220;9.746;2023-12-28T07:33:17;4.57;;;4.17;;
16177;SDS011;8195;51.220;9.746;2023-12-28T07:37:37;4.47;;;4.07;;
16177;SDS011;8195;51.220;9.746;2023-12-28T07:41:58;5.20;;;4.70;;
16177;SDS011;8195;51.220;9.746;2023-12-28T07:46:18;4.63;;;4.23;;
16177;SDS011;8195;51.220;9.746;2023-12-28T07:50:38;4.40;;;4.00;;
16177;SDS011;8195;51.220;9.746;2023-12-28T07:54:59;4.60;;;4.07;;
16177;SDS011;8195;51.220;9.746;2023-12-28T07:59:19;5.10;;;4.60;;
16177;SDS011;8195;51.220;9.746;2023-12-28T08:03:39;4.93;;;4.53;;
16177;SDS011;8195;51.220;9.746;2023-12-28T08:08:00;4.83;;;4.43;;
16177;SDS011;8195;51.220;9.746;2023-12-28T08:12:20;5.23;;;4.37;;
16177;SDS011;8195;51.220;9.746;2023-12-28T08:16:41;5.37;;;4.37;;
16177;SDS011;8195;51.220;9.746;2023-12-28T08:21:01;4.27;;;3.87;;
16177;SDS011;8195;51.220;9.746;2023-12-28T08:25:21;4.63;;;4.23;;
16177;SDS011;8195;51.220;9.746;2023-12-28T08:29:42;5.30;;;4.50;;
16177;SDS011;8195;51.220;9.746;2023-12-28T08:34:05;5.00;;;4.20;;
16177;SDS011;8195;51.220;9.746;2023-12-28T08:38:25;5.27;;;4.53;;
16177;SDS011;8195;51.220;9.746;2023-12-28T08:42:47;4.63;;;4.23;;
16177;SDS011;8195;51.220;9.746;2023-12-28T08:47:08;4.90;;;4.40;;
16177;SDS011;8195;51.220;9.746;2023-12-28T08:51:31;6.10;;;4.17;;
16177;SDS011;8195;51.220;9.746;2023-12-28T08:55:54;5.40;;;4.90;;
16177;SDS011;8195;51.220;9.746;2023-12-28T09:00:15;4.83;;;4.40;;
16177;SDS011;8195;51.220;9.746;2023-12-28T09:04:35;7.30;;;6.37;;
16177;SDS011;8195;51.220;9.746;2023-12-28T09:08:56;4.80;;;4.40;;
16177;SDS011;8195;51.220;9.746;2023-12-28T09:13:16;5.20;;;4.60;;
16177;SDS011;8195;51.220;9.746;2023-12-28T09:17:38;5.30;;;4.40;;
16177;SDS011;8195;51.220;9.746;2023-12-28T09:21:59;4.03;;;3.73;;
16177;SDS011;8195;51.220;9.746;2023-12-28T09:26:19;4.63;;;4.23;;
16177;SDS011;8195;51.220;9.746;2023-12-28T09:30:40;4.23;;;3.90;;
16177;SDS011;8195;51.220;9.746;2023-12-28T09:35:00;5.10;;;4.20;;
16177;SDS011;8195;51.220;9.746;2023-12-28T09:39:21;5.03;;;4.20;;
16177;SDS011;8195;51.220;9.746;2023-12-28T09:43:46;5.10;;;4.13;;
16177;SDS011;8195;51.220;9.746;2023-12-28T09:48:32;4.03;;;3.70;;
16177;SDS011;8195;51.220;9.746;2023-12-28T09:52:54;5.80;;;5.20;;
16177;SDS011;8195;51.220;9.746;2023-12-28T09:57:16;4.07;;;3.70;;
16177;SDS011;8195;51.220;9.746;2023-12-28T10:01:37;5.13;;;4.63;;
16177;SDS011;8195;51.220;9.746;2023-12-28T10:06:01;4.83;;;4.37;;
16177;SDS011;8195;51.220;9.746;2023-12-28T10:10:21;6.40;;;4.70;;
16177;SDS011;8195;51.220;9.746;2023-12-28T10:14:43;5.13;;;4.33;;
16177;SDS011;8195;51.220;9.746;2023-12-28T10:19:04;5.00;;;3.90;;
16177;SDS011;8195;51.220;9.746;2023-12-28T10:23:26;5.33;;;3.93;;
16177;SDS011;8195;51.220;9.746;2023-12-28T10:27:50;6.60;;;3.50;;
16177;SDS011;8195;51.220;9.746;2023-12-28T10:32:10;4.17;;;3.60;;
16177;SDS011;8195;51.220;9.746;2023-12-28T10:36:31;3.37;;;3.00;;
16177;SDS011;8195;51.220;9.746;2023-12-28T10:40:52;4.40;;;3.13;;
16177;SDS011;8195;51.220;9.746;2023-12-28T10:45:15;3.53;;;3.20;;
16177;SDS011;8195;51.220;9.746;2023-12-28T10:49:48;4.63;;;3.73;;
16177;SDS011;8195;51.220;9.746;2023-12-28T10:58:48;3.10;;;2.80;;
16177;SDS011;8195;51.220;9.746;2023-12-28T11:03:15;3.90;;;3.10;;
16177;SDS011;8195;51.220;9.746;2023-12-28T11:07:40;3.47;;;3.27;;
16177;SDS011;8195;51.220;9.746;2023-12-28T11:12:06;4.10;;;3.20;;
16177;SDS011;8195;51.220;9.746;2023-12-28T11:16:29;4.17;;;3.27;;
16177;SDS011;8195;51.220;9.746;2023-12-28T11:20:49;3.73;;;2.80;;
16177;SDS011;8195;51.220;9.746;2023-12-28T11:25:16;4.60;;;3.00;;
16177;SDS011;8195;51.220;9.746;2023-12-28T11:29:42;3.30;;;3.00;;
16177;SDS011;8195;51.220;9.746;2023-12-28T11:34:09;3.50;;;2.60;;
16177;SDS011;8195;51.220;9.746;2023-12-28T11:38:37;5.80;;;3.30;;
16177;SDS011;8195;51.220;9.746;2023-12-28T11:42:58;3.70;;;2.77;;
16177;SDS011;8195;51.220;9.746;2023-12-28T11:47:21;4.30;;;3.20;;
16177;SDS011;8195;51.220;9.746;2023-12-28T11:51:42;2.93;;;2.60;;
16177;SDS011;8195;51.220;9.746;2023-12-28T11:56:03;3.87;;;2.53;;
16177;SDS011;8195;51.220;9.746;2023-12-28T12:00:24;3.20;;;2.90;;
16177;SDS011;8195;51.220;9.746;2023-12-28T12:04:45;4.00;;;2.50;;
16177;SDS011;8195;51.220;9.746;2023-12-28T12:09:05;3.30;;;2.47;;
16177;SDS011;8195;51.220;9.746;2023-12-28T12:13:26;3.10;;;2.80;;
16177;SDS011;8195;51.220;9.746;2023-12-28T12:17:47;3.80;;;2.73;;
16177;SDS011;8195;51.220;9.746;2023-12-28T12:22:17;3.53;;;2.80;;
16177;SDS011;8195;51.220;9.746;2023-12-28T12:26:39;2.77;;;2.57;;
16177;SDS011;8195;51.220;9.746;2023-12-28T12:31:08;2.47;;;2.23;;
16177;SDS011;8195;51.220;9.746;2023-12-28T12:35:30;3.50;;;2.43;;
16177;SDS011;8195;51.220;9.746;2023-12-28T12:39:53;3.87;;;2.30;;
16177;SDS011;8195;51.220;9.746;2023-12-28T12:44:15;4.17;;;2.43;;
16177;SDS011;8195;51.220;9.746;2023-12-28T12:48:39;2.83;;;2.17;;
16177;SDS011;8195;51.220;9.746;2023-12-28T12:53:00;2.73;;;2.53;;
16177;SDS011;8195;51.220;9.746;2023-12-28T12:57:21;4.10;;;2.90;;
16177;SDS011;8195;51.220;9.746;2023-12-28T13:01:45;3.43;;;2.70;;
16177;SDS011;8195;51.220;9.746;2023-12-28T13:06:07;3.60;;;2.37;;
16177;SDS011;8195;51.220;9.746;2023-12-28T13:10:30;3.63;;;2.20;;
16177;SDS011;8195;51.220;9.746;2023-12-28T13:14:54;3.17;;;2.60;;
16177;SDS011;8195;51.220;9.746;2023-12-28T13:19:15;2.87;;;2.23;;
16177;SDS011;8195;51.220;9.746;2023-12-28T13:23:36;2.70;;;2.13;;
16177;SDS011;8195;51.220;9.746;2023-12-28T13:27:57;2.27;;;2.07;;
16177;SDS011;8195;51.220;9.746;2023-12-28T13:32:17;2.23;;;2.00;;
16177;SDS011;8195;51.220;9.746;2023-12-28T13:36:38;2.43;;;2.23;;
16177;SDS011;8195;51.220;9.746;2023-12-28T13:41:01;4.33;;;2.10;;
16177;SDS011;8195;51.220;9.746;2023-12-28T13:45:22;4.27;;;2.23;;
16177;SDS011;8195;51.220;9.746;2023-12-28T13:49:43;2.77;;;2.33;;
16177;SDS011;8195;51.220;9.746;2023-12-28T13:54:04;3.23;;;2.50;;
16177;SDS011;8195;51.220;9.746;2023-12-28T13:58:25;3.50;;;2.40;;
16177;SDS011;8195;51.220;9.746;2023-12-28T14:02:46;3.93;;;2.40;;
16177;SDS011;8195;51.220;9.746;2023-12-28T14:07:06;3.53;;;2.63;;
16177;SDS011;8195;51.220;9.746;2023-12-28T14:11:27;2.87;;;2.10;;
16177;SDS011;8195;51.220;9.746;2023-12-28T14:15:47;2.60;;;2.40;;
16177;SDS011;8195;51.220;9.746;2023-12-28T14:20:10;2.53;;;2.10;;
16177;SDS011;8195;51.220;9.746;2023-12-28T14:24:31;3.60;;;2.63;;
16177;SDS011;8195;51.220;9.746;2023-12-28T14:28:52;2.77;;;2.30;;
16177;SDS011;8195;51.220;9.746;2023-12-28T14:33:15;3.67;;;2.03;;
16177;SDS011;8195;51.220;9.746;2023-12-28T14:37:35;3.57;;;2.33;;
16177;SDS011;8195;51.220;9.746;2023-12-28T14:42:00;3.10;;;2.30;;
16177;SDS011;8195;51.220;9.746;2023-12-28T14:46:21;2.73;;;2.50;;
16177;SDS011;8195;51.220;9.746;2023-12-28T14:50:41;2.83;;;2.43;;
16177;SDS011;8195;51.220;9.746;2023-12-28T14:55:03;3.03;;;2.53;;
16177;SDS011;8195;51.220;9.746;2023-12-28T14:59:24;3.50;;;2.50;;
16177;SDS011;8195;51.220;9.746;2023-12-28T15:03:46;3.53;;;2.43;;
16177;SDS011;8195;51.220;9.746;2023-12-28T15:08:19;2.57;;;2.23;;
16177;SDS011;8195;51.220;9.746;2023-12-28T15:12:40;2.60;;;2.17;;
16177;SDS011;8195;51.220;9.746;2023-12-28T15:17:02;5.57;;;2.60;;
16177;SDS011;8195;51.220;9.746;2023-12-28T15:21:26;3.23;;;2.30;;
16177;SDS011;8195;51.220;9.746;2023-12-28T15:25:47;2.37;;;2.17;;
16177;SDS011;8195;51.220;9.746;2023-12-28T15:30:07;4.83;;;3.00;;
16177;SDS011;8195;51.220;9.746;2023-12-28T15:34:28;3.50;;;2.97;;
16177;SDS011;8195;51.220;9.746;2023-12-28T15:38:52;3.73;;;2.20;;
16177;SDS011;8195;51.220;9.746;2023-12-28T15:43:17;5.10;;;2.67;;
16177;SDS011;8195;51.220;9.746;2023-12-28T15:47:43;2.57;;;2.30;;
16177;SDS011;8195;51.220;9.746;2023-12-28T15:52:04;4.10;;;2.63;;
16177;SDS011;8195;51.220;9.746;2023-12-28T15:56:29;3.13;;;2.47;;
16177;SDS011;8195;51.220;9.746;2023-12-28T16:00:53;4.03;;;2.60;;
16177;SDS011;8195;51.220;9.746;2023-12-28T16:05:15;3.23;;;2.40;;
16177;SDS011;8195;51.220;9.746;2023-12-28T16:09:42;4.93;;;2.20;;
16177;SDS011;8195;51.220;9.746;2023-12-28T16:14:04;3.03;;;2.67;;
16177;SDS011;8195;51.220;9.746;2023-12-28T16:18:25;2.83;;;2.63;;
16177;SDS011;8195;51.220;9.746;2023-12-28T16:22:53;3.77;;;2.50;;
16177;SDS011;8195;51.220;9.746;2023-12-28T16:27:14;3.63;;;2.10;;
16177;SDS011;8195;51.220;9.746;2023-12-28T16:31:42;3.57;;;2.27;;
16177;SDS011;8195;51.220;9.746;2023-12-28T16:36:02;2.73;;;1.93;;
16177;SDS011;8195;51.220;9.746;2023-12-28T16:40:24;3.43;;;1.97;;
16177;SDS011;8195;51.220;9.746;2023-12-28T16:44:45;4.53;;;2.07;;
16177;SDS011;8195;51.220;9.746;2023-12-28T16:49:07;2.70;;;1.80;;
16177;SDS011;8195;51.220;9.746;2023-12-28T16:53:28;3.13;;;1.90;;
16177;SDS011;8195;51.220;9.746;2023-12-28T16:57:49;3.73;;;2.27;;
16177;SDS011;8195;51.220;9.746;2023-12-28T17:02:09;3.07;;;2.30;;
16177;SDS011;8195;51.220;9.746;2023-12-28T17:06:32;4.27;;;2.73;;
16177;SDS011;8195;51.220;9.746;2023-12-28T17:10:55;3.60;;;2.50;;
16177;SDS011;8195;51.220;9.746;2023-12-28T17:15:16;2.93;;;2.60;;
16177;SDS011;8195;51.220;9.746;2023-12-28T17:19:37;4.43;;;3.20;;
16177;SDS011;8195;51.220;9.746;2023-12-28T18:56:59;4.53;;;2.47;;
16177;SDS011;8195;51.220;9.746;2023-12-28T19:01:20;2.70;;;2.50;;
16177;SDS011;8195;51.220;9.746;2023-12-28T19:05:44;2.53;;;2.33;;
16177;SDS011;8195;51.220;9.746;2023-12-28T19:10:06;2.77;;;2.43;;
16177;SDS011;8195;51.220;9.746;2023-12-28T19:14:30;2.80;;;2.53;;
16177;SDS011;8195;51.220;9.746;2023-12-28T19:18:51;3.03;;;2.70;;
16177;SDS011;8195;51.220;9.746;2023-12-28T19:23:12;3.10;;;2.80;;
16177;SDS011;8195;51.220;9.746;2023-12-28T19:27:33;3.23;;;2.93;;
16177;SDS011;8195;51.220;9.746;2023-12-28T19:31:53;3.20;;;2.90;;
16177;SDS011;8195;51.220;9.746;2023-12-28T19:36:14;3.07;;;2.77;;
16177;SDS011;8195;51.220;9.746;2023-12-28T19:40:35;3.30;;;3.10;;
16177;SDS011;8195;51.220;9.746;2023-12-28T19:44:56;3.03;;;2.80;;
16177;SDS011;8195;51.220;9.746;2023-12-28T19:49:17;3.40;;;3.10;;
16177;SDS011;8195;51.220;9.746;2023-12-28T19:53:39;3.70;;;3.40;;
16177;SDS011;8195;51.220;9.746;2023-12-28T19:58:12;3.40;;;3.10;;
16177;SDS011;8195;51.220;9.746;2023-12-28T20:02:33;4.50;;;3.17;;
16177;SDS011;8195;51.220;9.746;2023-12-28T20:06:54;3.90;;;3.00;;
16177;SDS011;8195;51.220;9.746;2023-12-28T20:11:16;2.90;;;2.70;;
16177;SDS011;8195;51.220;9.746;2023-12-28T20:15:37;2.80;;;2.60;;
16177;SDS011;8195;51.220;9.746;2023-12-28T20:19:58;4.63;;;3.10;;
16177;SDS011;8195;51.220;9.746;2023-12-28T20:24:21;2.83;;;2.63;;
16177;SDS011;8195;51.220;9.746;2023-12-28T20:28:43;3.00;;;2.80;;
16177;SDS011;8195;51.220;9.746;2023-12-28T20:33:12;3.10;;;2.73;;
16177;SDS011;8195;51.220;9.746;2023-12-28T20:37:33;2.97;;;2.70;;
16177;SDS011;8195;51.220;9.746;2023-12-28T20:41:54;3.47;;;3.17;;
16177;SDS011;8195;51.220;9.746;2023-12-28T20:46:16;2.80;;;2.60;;
16177;SDS011;8195;51.220;9.746;2023-12-28T20:50:37;3.33;;;2.83;;
16177;SDS011;8195;51.220;9.746;2023-12-28T20:55:01;4.03;;;2.70;;
16177;SDS011;8195;51.220;9.746;2023-12-28T20:59:26;3.57;;;2.80;;
16177;SDS011;8195;51.220;9.746;2023-12-28T21:03:47;3.47;;;3.17;;
16177;SDS011;8195;51.220;9.746;2023-12-28T21:08:09;3.33;;;2.97;;
16177;SDS011;8195;51.220;9.746;2023-12-28T21:12:30;3.67;;;3.40;;
16177;SDS011;8195;51.220;9.746;2023-12-28T21:16:54;3.57;;;3.27;;
16177;SDS011;8195;51.220;9.746;2023-12-28T21:21:14;5.00;;;3.40;;
16177;SDS011;8195;51.220;9.746;2023-12-28T21:25:35;4.30;;;3.40;;
16177;SDS011;8195;51.220;9.746;2023-12-28T21:29:57;5.07;;;3.30;;
16177;SDS011;8195;51.220;9.746;2023-12-28T21:34:17;3.20;;;2.90;;
16177;SDS011;8195;51.220;9.746;2023-12-28T21:38:39;5.00;;;3.33;;
16177;SDS011;8195;51.220;9.746;2023-12-28T21:42:59;3.37;;;3.07;;
16177;SDS011;8195;51.220;9.746;2023-12-28T21:47:20;4.20;;;3.00;;
16177;SDS011;8195;51.220;9.746;2023-12-28T21:51:42;3.50;;;3.20;;
16177;SDS011;8195;51.220;9.746;2023-12-28T21:56:03;3.27;;;2.97;;
16177;SDS011;8195;51.220;9.746;2023-12-28T22:00:23;4.90;;;4.07;;
16177;SDS011;8195;51.220;9.746;2023-12-28T22:04:44;3.60;;;3.33;;
16177;SDS011;8195;51.220;9.746;2023-12-28T22:09:05;3.60;;;3.40;;
16177;SDS011;8195;51.220;9.746;2023-12-28T22:13:25;3.40;;;3.10;;
16177;SDS011;8195;51.220;9.746;2023-12-28T22:17:49;4.37;;;3.63;;
16177;SDS011;8195;51.220;9.746;2023-12-28T22:22:09;3.83;;;3.50;;
16177;SDS011;8195;51.220;9.746;2023-12-28T22:26:31;3.50;;;3.23;;
16177;SDS011;8195;51.220;9.746;2023-12-28T22:30:55;3.50;;;3.20;;
16177;SDS011;8195;51.220;9.746;2023-12-28T22:35:18;3.93;;;3.07;;
16177;SDS011;8195;51.220;9.746;2023-12-28T22:39:38;3.43;;;3.23;;
16177;SDS011;8195;51.220;9.746;2023-12-28T22:43:59;3.07;;;2.87;;
16177;SDS011;8195;51.220;9.746;2023-12-28T22:48:19;3.30;;;3.00;;
16177;SDS011;8195;51.220;9.746;2023-12-28T22:52:40;3.63;;;3.33;;
16177;SDS011;8195;51.220;9.746;2023-12-28T22:57:02;3.40;;;3.10;;
16177;SDS011;8195;51.220;9.746;2023-12-28T23:01:22;3.93;;;3.40;;
16177;SDS011;8195;51.220;9.746;2023-12-28T23:05:43;3.30;;;3.10;;
16177;SDS011;8195;51.220;9.746;2023-12-28T23:10:06;3.50;;;3.20;;
16177;SDS011;8195;51.220;9.746;2023-12-28T23:14:28;3.50;;;3.20;;
16177;SDS011;8195;51.220;9.746;2023-12-28T23:19:00;3.50;;;3.00;;
16177;SDS011;8195;51.220;9.746;2023-12-28T23:23:27;2.90;;;2.70;;
16177;SDS011;8195;51.220;9.746;2023-12-28T23:27:48;3.10;;;2.70;;
16177;SDS011;8195;51.220;9.746;2023-12-28T23:32:12;3.63;;;3.33;;
16177;SDS011;8195;51.220;9.746;2023-12-28T23:36:33;3.27;;;2.97;;
16177;SDS011;8195;51.220;9.746;2023-12-28T23:40:59;3.00;;;2.70;;
16177;SDS011;8195;51.220;9.746;2023-12-28T23:45:22;3.00;;;2.80;;
16177;SDS011;8195;51.220;9.746;2023-12-28T23:49:42;2.80;;;2.60;;
16177;SDS011;8195;51.220;9.746;2023-12-28T23:54:04;2.70;;;2.50;;
16177;SDS011;8195;51.220;9.746;2023-12-28T23:58:25;2.80;;;2.60;;
